Alberton, MT

7:14 AM MDT on September 02, 2014 (GMT -0600)
Downtown Alberton | Change Station
CLOSE
Current Station
Personal Weather Station
Location: Alberton, MT
Elevation: 3048 ft
Nearby Weather Stations

Elev 3048 ft 47.00 °N, 114.48 °W | Updated 50 seconds ago

Partly Cloudy
Partly Cloudy
42.1 °F
Feels Like 42 °F
N
1.0
Wind Variable Wind from SE
Gusts 2.0 mph

Today
High -- | Low -- °F
--% Chance of Precip.
Yesterday
High -- | Low -- °F
Precip. -- in
6:58 AM 8:15 PM
Waxing Crescent, 51% visible
Pressure 29.98 in
Visibility 10.0 miles
Clouds Clear
Windchill 42 °F
Dew Point 39 °F
Humidity 89%
Rainfall 0.00 in
Snow Depth 0 in
UV 0 out of 12
Pollen 7.10 out of 12
Air Quality Not available.
Flu Activity Not available.
METAR KMSO 021253Z 00000KT 10SM CLR 06/04 A2999 RMK AO2 SLP151 T00610039

More Conditions Fewer Conditions

Pressure 29.98 in
Visibility 10.0 miles
Clouds Clear
Windchill 42 °F
Dew Point 39 °F
Humidity 89%
Rainfall 0.00 in
Snow Depth 0 in
UV 0 out of 12
Pollen 7.10 out of 12
Air Quality Not available.
Flu Activity Not available.
METAR KMSO 021253Z 00000KT 10SM CLR 06/04 A2999 RMK AO2 SLP151 T00610039

More Conditions Fewer Conditions

10-Day Weather Forecast

Almanac

Astronomy

Sep. 02, 2014 Rise Set
Actual Time 6:58 AM MDT 8:15 PM MDT
Civil Twilight 6:27 AM MDT 8:46 PM MDT
Nautical Twilight 5:49 AM MDT 9:24 PM MDT
Astronomical Twilight 5:08 AM MDT 10:05 PM MDT
Moon 3:14 PM MDT No Moon Set
Length of Visible Light 14h 19m
Length of Day
13h 16m
Tomorrow will be 3m 15s shorter.
Waxing Crescent, 51% of the Moon is Illuminated
Today
Waxing Crescent
Sep 8
Full
Sep 15
Last Quarter
Sep 24
New
Oct 1
First Quarter

Today's Extremes

State Highs State Lows

Community

WunderPhotos

Upload Photos

1,749,648 photos uploaded!

Nearby

Snow Depth

Station Depth Elevation
Sleeping Woman 0 in 6150 ft
Stuart Mountain 0 in 7400 ft
North Fork Jocko 0 in 6330 ft
Kraft Creek 0 in 4750 ft
Bisson Creek 0 in 4925 ft

Earthquake Activity

City Distance Mag. Time & Date
No recent earthquake activity has been reported nearby.
Minimum magnitude displayed is 2.5.

Coastal Water Temperatures

Place Temperature
No Stations Reporting

Nearby Weather Stations